sensor_id;sensor_type;location;lat;lon;timestamp;P1;durP1;ratioP1;P2;durP2;ratioP2
10365;SDS011;5229;41.820;23.490;2022-11-20T00:01:04;1.53;;;0.70;;
10365;SDS011;5229;41.820;23.490;2022-11-20T00:03:31;1.57;;;0.97;;
10365;SDS011;5229;41.820;23.490;2022-11-20T00:05:59;1.77;;;0.80;;
10365;SDS011;5229;41.820;23.490;2022-11-20T00:08:26;1.77;;;0.87;;
10365;SDS011;5229;41.820;23.490;2022-11-20T00:10:53;1.90;;;1.23;;
10365;SDS011;5229;41.820;23.490;2022-11-20T00:13:20;1.00;;;0.90;;
10365;SDS011;5229;41.820;23.490;2022-11-20T00:15:48;3.80;;;1.37;;
10365;SDS011;5229;41.820;23.490;2022-11-20T00:18:15;5.10;;;1.07;;
10365;SDS011;5229;41.820;23.490;2022-11-20T00:20:42;1.33;;;1.00;;
10365;SDS011;5229;41.820;23.490;2022-11-20T00:23:08;1.47;;;0.90;;
10365;SDS011;5229;41.820;23.490;2022-11-20T00:25:35;3.07;;;0.90;;
10365;SDS011;5229;41.820;23.490;2022-11-20T00:28:02;0.80;;;0.80;;
10365;SDS011;5229;41.820;23.490;2022-11-20T00:30:29;1.43;;;0.97;;
10365;SDS011;5229;41.820;23.490;2022-11-20T00:32:57;0.60;;;0.60;;
10365;SDS011;5229;41.820;23.490;2022-11-20T00:35:24;3.80;;;0.90;;
10365;SDS011;5229;41.820;23.490;2022-11-20T00:37:51;3.13;;;0.90;;
10365;SDS011;5229;41.820;23.490;2022-11-20T00:40:18;0.93;;;0.57;;
10365;SDS011;5229;41.820;23.490;2022-11-20T00:42:45;0.80;;;0.50;;
10365;SDS011;5229;41.820;23.490;2022-11-20T00:45:12;1.53;;;0.90;;
10365;SDS011;5229;41.820;23.490;2022-11-20T00:47:38;1.77;;;0.60;;
10365;SDS011;5229;41.820;23.490;2022-11-20T00:50:07;2.87;;;0.80;;
10365;SDS011;5229;41.820;23.490;2022-11-20T00:52:34;0.77;;;0.40;;
10365;SDS011;5229;41.820;23.490;2022-11-20T00:55:01;0.60;;;0.53;;
10365;SDS011;5229;41.820;23.490;2022-11-20T00:57:28;2.63;;;0.53;;
10365;SDS011;5229;41.820;23.490;2022-11-20T00:59:55;0.80;;;0.60;;
10365;SDS011;5229;41.820;23.490;2022-11-20T01:02:22;0.30;;;0.30;;
10365;SDS011;5229;41.820;23.490;2022-11-20T01:04:49;0.40;;;0.40;;
10365;SDS011;5229;41.820;23.490;2022-11-20T01:07:17;0.30;;;0.23;;
10365;SDS011;5229;41.820;23.490;2022-11-20T01:09:44;1.70;;;0.50;;
10365;SDS011;5229;41.820;23.490;2022-11-20T01:12:10;0.50;;;0.50;;
10365;SDS011;5229;41.820;23.490;2022-11-20T01:14:37;0.63;;;0.33;;
10365;SDS011;5229;41.820;23.490;2022-11-20T01:17:04;0.30;;;0.30;;
10365;SDS011;5229;41.820;23.490;2022-11-20T01:19:31;1.87;;;0.50;;
10365;SDS011;5229;41.820;23.490;2022-11-20T01:21:58;0.53;;;0.40;;
10365;SDS011;5229;41.820;23.490;2022-11-20T01:24:26;1.70;;;0.40;;
10365;SDS011;5229;41.820;23.490;2022-11-20T01:26:53;1.87;;;0.70;;
10365;SDS011;5229;41.820;23.490;2022-11-20T01:29:20;0.20;;;0.20;;
10365;SDS011;5229;41.820;23.490;2022-11-20T01:31:48;0.90;;;0.40;;
10365;SDS011;5229;41.820;23.490;2022-11-20T01:34:16;0.30;;;0.30;;
10365;SDS011;5229;41.820;23.490;2022-11-20T01:36:44;0.40;;;0.40;;
10365;SDS011;5229;41.820;23.490;2022-11-20T01:39:13;0.50;;;0.40;;
10365;SDS011;5229;41.820;23.490;2022-11-20T01:41:42;0.63;;;0.40;;
10365;SDS011;5229;41.820;23.490;2022-11-20T01:44:43;0.43;;;0.30;;
10365;SDS011;5229;41.820;23.490;2022-11-20T01:47:16;1.07;;;0.70;;
10365;SDS011;5229;41.820;23.490;2022-11-20T01:49:46;1.50;;;0.47;;
10365;SDS011;5229;41.820;23.490;2022-11-20T01:52:17;4.20;;;0.50;;
10365;SDS011;5229;41.820;23.490;2022-11-20T01:54:48;1.37;;;0.60;;
10365;SDS011;5229;41.820;23.490;2022-11-20T01:57:22;2.37;;;0.50;;
10365;SDS011;5229;41.820;23.490;2022-11-20T01:59:56;1.43;;;1.07;;
10365;SDS011;5229;41.820;23.490;2022-11-20T02:02:28;0.67;;;0.50;;
10365;SDS011;5229;41.820;23.490;2022-11-20T02:04:57;0.30;;;0.30;;
10365;SDS011;5229;41.820;23.490;2022-11-20T02:07:32;0.30;;;0.30;;
10365;SDS011;5229;41.820;23.490;2022-11-20T02:09:59;2.07;;;0.37;;
10365;SDS011;5229;41.820;23.490;2022-11-20T02:12:27;0.47;;;0.40;;
10365;SDS011;5229;41.820;23.490;2022-11-20T02:15:11;2.10;;;0.50;;
10365;SDS011;5229;41.820;23.490;2022-11-20T02:17:38;1.10;;;0.53;;
10365;SDS011;5229;41.820;23.490;2022-11-20T02:20:06;1.00;;;0.67;;
10365;SDS011;5229;41.820;23.490;2022-11-20T02:22:34;1.80;;;0.30;;
10365;SDS011;5229;41.820;23.490;2022-11-20T02:25:09;0.47;;;0.47;;
10365;SDS011;5229;41.820;23.490;2022-11-20T02:27:37;0.40;;;0.40;;
10365;SDS011;5229;41.820;23.490;2022-11-20T02:30:05;0.90;;;0.50;;
10365;SDS011;5229;41.820;23.490;2022-11-20T02:32:34;0.40;;;0.30;;
10365;SDS011;5229;41.820;23.490;2022-11-20T02:35:06;0.60;;;0.60;;
10365;SDS011;5229;41.820;23.490;2022-11-20T02:37:34;1.27;;;0.70;;
10365;SDS011;5229;41.820;23.490;2022-11-20T02:40:03;3.70;;;0.83;;
10365;SDS011;5229;41.820;23.490;2022-11-20T02:42:32;0.90;;;0.70;;
10365;SDS011;5229;41.820;23.490;2022-11-20T02:44:59;0.73;;;0.67;;
10365;SDS011;5229;41.820;23.490;2022-11-20T02:47:26;2.23;;;0.90;;
10365;SDS011;5229;41.820;23.490;2022-11-20T02:49:53;0.83;;;0.60;;
10365;SDS011;5229;41.820;23.490;2022-11-20T02:52:20;2.53;;;0.80;;
10365;SDS011;5229;41.820;23.490;2022-11-20T02:54:46;1.87;;;0.97;;
10365;SDS011;5229;41.820;23.490;2022-11-20T02:57:13;1.90;;;0.47;;
10365;SDS011;5229;41.820;23.490;2022-11-20T02:59:41;0.70;;;0.60;;
10365;SDS011;5229;41.820;23.490;2022-11-20T03:02:08;1.20;;;0.87;;
10365;SDS011;5229;41.820;23.490;2022-11-20T03:04:35;1.13;;;0.63;;
10365;SDS011;5229;41.820;23.490;2022-11-20T03:07:02;1.50;;;0.83;;
10365;SDS011;5229;41.820;23.490;2022-11-20T03:09:29;2.20;;;1.10;;
10365;SDS011;5229;41.820;23.490;2022-11-20T03:11:56;1.17;;;1.07;;
10365;SDS011;5229;41.820;23.490;2022-11-20T03:14:23;2.40;;;1.00;;
10365;SDS011;5229;41.820;23.490;2022-11-20T03:16:51;1.90;;;0.90;;
10365;SDS011;5229;41.820;23.490;2022-11-20T03:19:18;1.53;;;1.00;;
10365;SDS011;5229;41.820;23.490;2022-11-20T03:21:45;3.13;;;1.10;;
10365;SDS011;5229;41.820;23.490;2022-11-20T03:24:12;3.20;;;0.90;;
10365;SDS011;5229;41.820;23.490;2022-11-20T03:26:39;1.30;;;1.00;;
10365;SDS011;5229;41.820;23.490;2022-11-20T03:29:06;0.97;;;0.80;;
10365;SDS011;5229;41.820;23.490;2022-11-20T03:31:35;2.80;;;1.10;;
10365;SDS011;5229;41.820;23.490;2022-11-20T03:34:06;2.47;;;0.80;;
10365;SDS011;5229;41.820;23.490;2022-11-20T03:36:34;1.50;;;0.40;;
10365;SDS011;5229;41.820;23.490;2022-11-20T03:39:03;0.70;;;0.70;;
10365;SDS011;5229;41.820;23.490;2022-11-20T03:41:30;2.30;;;1.10;;
10365;SDS011;5229;41.820;23.490;2022-11-20T03:44:02;1.03;;;0.97;;
10365;SDS011;5229;41.820;23.490;2022-11-20T03:46:30;1.50;;;1.00;;
10365;SDS011;5229;41.820;23.490;2022-11-20T03:48:57;2.07;;;1.10;;
10365;SDS011;5229;41.820;23.490;2022-11-20T03:51:25;1.47;;;0.80;;
10365;SDS011;5229;41.820;23.490;2022-11-20T03:53:54;1.40;;;0.90;;
10365;SDS011;5229;41.820;23.490;2022-11-20T03:56:25;2.00;;;0.87;;
10365;SDS011;5229;41.820;23.490;2022-11-20T03:58:52;2.30;;;0.70;;
10365;SDS011;5229;41.820;23.490;2022-11-20T04:01:20;1.47;;;0.87;;
10365;SDS011;5229;41.820;23.490;2022-11-20T04:03:49;0.50;;;0.50;;
10365;SDS011;5229;41.820;23.490;2022-11-20T04:06:19;0.90;;;0.50;;
10365;SDS011;5229;41.820;23.490;2022-11-20T04:08:49;1.63;;;0.80;;
10365;SDS011;5229;41.820;23.490;2022-11-20T04:11:16;1.50;;;0.80;;
10365;SDS011;5229;41.820;23.490;2022-11-20T04:13:46;1.17;;;0.67;;
10365;SDS011;5229;41.820;23.490;2022-11-20T04:16:14;0.93;;;0.73;;
10365;SDS011;5229;41.820;23.490;2022-11-20T04:18:41;0.93;;;0.67;;
10365;SDS011;5229;41.820;23.490;2022-11-20T04:21:08;1.27;;;1.00;;
10365;SDS011;5229;41.820;23.490;2022-11-20T04:23:36;3.60;;;0.60;;
10365;SDS011;5229;41.820;23.490;2022-11-20T04:26:05;2.00;;;0.67;;
10365;SDS011;5229;41.820;23.490;2022-11-20T04:28:33;2.80;;;0.87;;
10365;SDS011;5229;41.820;23.490;2022-11-20T04:31:02;1.90;;;0.90;;
10365;SDS011;5229;41.820;23.490;2022-11-20T04:33:30;0.60;;;0.57;;
10365;SDS011;5229;41.820;23.490;2022-11-20T04:35:59;1.87;;;0.83;;
10365;SDS011;5229;41.820;23.490;2022-11-20T04:38:28;0.93;;;0.73;;
10365;SDS011;5229;41.820;23.490;2022-11-20T04:40:58;4.30;;;1.10;;
10365;SDS011;5229;41.820;23.490;2022-11-20T04:43:27;1.43;;;1.23;;
10365;SDS011;5229;41.820;23.490;2022-11-20T04:45:54;3.33;;;1.60;;
10365;SDS011;5229;41.820;23.490;2022-11-20T04:48:22;1.53;;;1.43;;
10365;SDS011;5229;41.820;23.490;2022-11-20T04:50:49;2.17;;;1.73;;
10365;SDS011;5229;41.820;23.490;2022-11-20T04:53:15;2.00;;;1.67;;
10365;SDS011;5229;41.820;23.490;2022-11-20T04:55:43;2.53;;;1.50;;
10365;SDS011;5229;41.820;23.490;2022-11-20T04:58:10;1.77;;;1.47;;
10365;SDS011;5229;41.820;23.490;2022-11-20T05:00:38;2.50;;;1.40;;
10365;SDS011;5229;41.820;23.490;2022-11-20T05:03:05;1.63;;;1.20;;
10365;SDS011;5229;41.820;23.490;2022-11-20T05:05:33;2.37;;;0.90;;
10365;SDS011;5229;41.820;23.490;2022-11-20T05:08:00;2.60;;;1.47;;
10365;SDS011;5229;41.820;23.490;2022-11-20T05:10:27;3.17;;;1.67;;
10365;SDS011;5229;41.820;23.490;2022-11-20T05:12:54;2.53;;;1.47;;
10365;SDS011;5229;41.820;23.490;2022-11-20T05:15:21;2.33;;;1.80;;
10365;SDS011;5229;41.820;23.490;2022-11-20T05:17:49;3.27;;;2.10;;
10365;SDS011;5229;41.820;23.490;2022-11-20T05:20:17;3.73;;;1.57;;
10365;SDS011;5229;41.820;23.490;2022-11-20T05:22:44;4.10;;;1.73;;
10365;SDS011;5229;41.820;23.490;2022-11-20T05:25:11;3.50;;;2.10;;
10365;SDS011;5229;41.820;23.490;2022-11-20T05:27:38;3.33;;;2.33;;
10365;SDS011;5229;41.820;23.490;2022-11-20T05:30:05;2.30;;;2.10;;
10365;SDS011;5229;41.820;23.490;2022-11-20T05:32:33;3.33;;;2.10;;
10365;SDS011;5229;41.820;23.490;2022-11-20T05:35:01;4.10;;;2.20;;
10365;SDS011;5229;41.820;23.490;2022-11-20T05:37:28;2.83;;;1.60;;
10365;SDS011;5229;41.820;23.490;2022-11-20T05:39:55;1.80;;;1.40;;
10365;SDS011;5229;41.820;23.490;2022-11-20T05:42:22;2.77;;;1.40;;
10365;SDS011;5229;41.820;23.490;2022-11-20T05:44:58;2.73;;;1.57;;
10365;SDS011;5229;41.820;23.490;2022-11-20T05:47:26;2.17;;;1.40;;
10365;SDS011;5229;41.820;23.490;2022-11-20T05:49:54;2.80;;;1.27;;
10365;SDS011;5229;41.820;23.490;2022-11-20T05:52:22;3.57;;;1.40;;
10365;SDS011;5229;41.820;23.490;2022-11-20T05:54:49;3.63;;;1.63;;
10365;SDS011;5229;41.820;23.490;2022-11-20T05:57:16;3.67;;;1.30;;
10365;SDS011;5229;41.820;23.490;2022-11-20T05:59:43;3.10;;;1.50;;
10365;SDS011;5229;41.820;23.490;2022-11-20T06:02:10;3.57;;;1.40;;
10365;SDS011;5229;41.820;23.490;2022-11-20T06:04:37;1.87;;;1.40;;
10365;SDS011;5229;41.820;23.490;2022-11-20T06:07:04;1.93;;;1.33;;
10365;SDS011;5229;41.820;23.490;2022-11-20T06:09:33;2.13;;;1.27;;
10365;SDS011;5229;41.820;23.490;2022-11-20T06:12:00;3.27;;;1.33;;
10365;SDS011;5229;41.820;23.490;2022-11-20T06:14:27;2.17;;;1.40;;
10365;SDS011;5229;41.820;23.490;2022-11-20T06:16:54;1.73;;;1.50;;
10365;SDS011;5229;41.820;23.490;2022-11-20T06:19:21;3.10;;;1.70;;
10365;SDS011;5229;41.820;23.490;2022-11-20T06:21:47;2.10;;;1.30;;
10365;SDS011;5229;41.820;23.490;2022-11-20T06:24:15;3.83;;;1.30;;
10365;SDS011;5229;41.820;23.490;2022-11-20T06:26:44;1.30;;;1.20;;
10365;SDS011;5229;41.820;23.490;2022-11-20T06:29:11;1.90;;;1.33;;
10365;SDS011;5229;41.820;23.490;2022-11-20T06:31:38;4.07;;;1.30;;
10365;SDS011;5229;41.820;23.490;2022-11-20T06:34:05;1.97;;;1.50;;
10365;SDS011;5229;41.820;23.490;2022-11-20T06:36:32;2.23;;;1.27;;
10365;SDS011;5229;41.820;23.490;2022-11-20T06:38:59;2.93;;;1.60;;
10365;SDS011;5229;41.820;23.490;2022-11-20T06:41:27;3.13;;;1.40;;
10365;SDS011;5229;41.820;23.490;2022-11-20T06:43:55;1.67;;;1.10;;
10365;SDS011;5229;41.820;23.490;2022-11-20T06:46:22;2.33;;;1.60;;
10365;SDS011;5229;41.820;23.490;2022-11-20T06:48:49;4.27;;;1.23;;
10365;SDS011;5229;41.820;23.490;2022-11-20T06:51:16;2.67;;;1.73;;
10365;SDS011;5229;41.820;23.490;2022-11-20T06:53:43;1.10;;;1.00;;
10365;SDS011;5229;41.820;23.490;2022-11-20T06:56:10;1.50;;;1.17;;
10365;SDS011;5229;41.820;23.490;2022-11-20T06:58:37;6.70;;;1.60;;
10365;SDS011;5229;41.820;23.490;2022-11-20T07:01:06;3.00;;;1.67;;
10365;SDS011;5229;41.820;23.490;2022-11-20T07:03:35;1.83;;;1.00;;
10365;SDS011;5229;41.820;23.490;2022-11-20T07:06:03;1.43;;;1.23;;
10365;SDS011;5229;41.820;23.490;2022-11-20T07:08:31;2.27;;;1.47;;
10365;SDS011;5229;41.820;23.490;2022-11-20T07:10:59;4.33;;;1.40;;
10365;SDS011;5229;41.820;23.490;2022-11-20T07:13:26;3.10;;;1.70;;
10365;SDS011;5229;41.820;23.490;2022-11-20T07:15:54;1.83;;;1.30;;
10365;SDS011;5229;41.820;23.490;2022-11-20T07:18:22;3.80;;;1.60;;
10365;SDS011;5229;41.820;23.490;2022-11-20T07:20:49;3.00;;;1.60;;
10365;SDS011;5229;41.820;23.490;2022-11-20T07:23:16;2.57;;;1.63;;
10365;SDS011;5229;41.820;23.490;2022-11-20T07:25:43;5.33;;;1.47;;
10365;SDS011;5229;41.820;23.490;2022-11-20T07:28:09;4.33;;;1.57;;
10365;SDS011;5229;41.820;23.490;2022-11-20T07:30:36;5.67;;;1.60;;
10365;SDS011;5229;41.820;23.490;2022-11-20T07:33:04;2.87;;;1.57;;
10365;SDS011;5229;41.820;23.490;2022-11-20T07:35:32;6.70;;;1.60;;
10365;SDS011;5229;41.820;23.490;2022-11-20T07:37:59;4.10;;;1.53;;
10365;SDS011;5229;41.820;23.490;2022-11-20T07:40:26;3.00;;;1.50;;
10365;SDS011;5229;41.820;23.490;2022-11-20T07:42:53;3.73;;;1.50;;
10365;SDS011;5229;41.820;23.490;2022-11-20T07:45:22;3.87;;;1.80;;
10365;SDS011;5229;41.820;23.490;2022-11-20T07:47:50;6.63;;;1.57;;
10365;SDS011;5229;41.820;23.490;2022-11-20T07:50:17;2.00;;;1.20;;
10365;SDS011;5229;41.820;23.490;2022-11-20T07:52:45;1.50;;;1.40;;
10365;SDS011;5229;41.820;23.490;2022-11-20T07:55:12;3.27;;;1.60;;
10365;SDS011;5229;41.820;23.490;2022-11-20T07:57:39;6.03;;;1.57;;
10365;SDS011;5229;41.820;23.490;2022-11-20T08:00:08;3.53;;;2.00;;
10365;SDS011;5229;41.820;23.490;2022-11-20T08:02:37;4.27;;;1.93;;
10365;SDS011;5229;41.820;23.490;2022-11-20T08:05:05;2.53;;;1.40;;
10365;SDS011;5229;41.820;23.490;2022-11-20T08:07:35;5.43;;;1.97;;
10365;SDS011;5229;41.820;23.490;2022-11-20T08:10:04;4.93;;;1.83;;
10365;SDS011;5229;41.820;23.490;2022-11-20T08:12:32;2.43;;;1.53;;
10365;SDS011;5229;41.820;23.490;2022-11-20T08:15:19;4.47;;;1.40;;
10365;SDS011;5229;41.820;23.490;2022-11-20T08:17:45;4.40;;;1.80;;
10365;SDS011;5229;41.820;23.490;2022-11-20T08:20:12;4.03;;;1.70;;
10365;SDS011;5229;41.820;23.490;2022-11-20T08:22:39;1.60;;;1.50;;
10365;SDS011;5229;41.820;23.490;2022-11-20T08:25:08;3.60;;;1.80;;
10365;SDS011;5229;41.820;23.490;2022-11-20T08:27:35;3.87;;;1.67;;
10365;SDS011;5229;41.820;23.490;2022-11-20T08:30:02;2.27;;;1.37;;
10365;SDS011;5229;41.820;23.490;2022-11-20T08:32:29;4.13;;;1.70;;
10365;SDS011;5229;41.820;23.490;2022-11-20T08:34:56;3.80;;;1.47;;
10365;SDS011;5229;41.820;23.490;2022-11-20T08:37:23;3.43;;;1.80;;
10365;SDS011;5229;41.820;23.490;2022-11-20T08:39:50;5.00;;;1.70;;
10365;SDS011;5229;41.820;23.490;2022-11-20T08:42:19;2.30;;;1.60;;
10365;SDS011;5229;41.820;23.490;2022-11-20T08:44:46;4.77;;;1.80;;
10365;SDS011;5229;41.820;23.490;2022-11-20T08:47:13;2.83;;;1.80;;
10365;SDS011;5229;41.820;23.490;2022-11-20T08:49:40;3.07;;;1.60;;
10365;SDS011;5229;41.820;23.490;2022-11-20T08:52:07;4.23;;;2.00;;
10365;SDS011;5229;41.820;23.490;2022-11-20T08:54:34;5.50;;;1.53;;
10365;SDS011;5229;41.820;23.490;2022-11-20T08:57:00;2.97;;;1.60;;
10365;SDS011;5229;41.820;23.490;2022-11-20T08:59:29;3.50;;;1.70;;
10365;SDS011;5229;41.820;23.490;2022-11-20T09:01:56;3.03;;;1.47;;
10365;SDS011;5229;41.820;23.490;2022-11-20T09:04:23;1.80;;;1.37;;
10365;SDS011;5229;41.820;23.490;2022-11-20T09:06:50;3.47;;;1.40;;
10365;SDS011;5229;41.820;23.490;2022-11-20T09:09:17;4.33;;;1.70;;
10365;SDS011;5229;41.820;23.490;2022-11-20T09:11:44;2.60;;;1.30;;
10365;SDS011;5229;41.820;23.490;2022-11-20T09:14:11;2.33;;;1.20;;
10365;SDS011;5229;41.820;23.490;2022-11-20T09:16:39;4.80;;;1.70;;
10365;SDS011;5229;41.820;23.490;2022-11-20T09:19:06;2.87;;;1.53;;
10365;SDS011;5229;41.820;23.490;2022-11-20T09:21:33;4.30;;;1.67;;
10365;SDS011;5229;41.820;23.490;2022-11-20T09:23:59;3.77;;;1.50;;
10365;SDS011;5229;41.820;23.490;2022-11-20T09:26:26;2.00;;;1.37;;
10365;SDS011;5229;41.820;23.490;2022-11-20T09:28:53;6.20;;;1.87;;
10365;SDS011;5229;41.820;23.490;2022-11-20T09:31:22;2.40;;;1.27;;
10365;SDS011;5229;41.820;23.490;2022-11-20T09:33:51;4.13;;;1.70;;
10365;SDS011;5229;41.820;23.490;2022-11-20T09:36:18;3.67;;;1.60;;
10365;SDS011;5229;41.820;23.490;2022-11-20T09:38:45;3.67;;;1.97;;
10365;SDS011;5229;41.820;23.490;2022-11-20T09:41:29;5.10;;;1.60;;
10365;SDS011;5229;41.820;23.490;2022-11-20T09:44:24;5.57;;;1.93;;
10365;SDS011;5229;41.820;23.490;2022-11-20T09:47:00;3.20;;;1.60;;
10365;SDS011;5229;41.820;23.490;2022-11-20T09:49:38;3.00;;;1.87;;
10365;SDS011;5229;41.820;23.490;2022-11-20T09:52:21;4.77;;;1.87;;
10365;SDS011;5229;41.820;23.490;2022-11-20T09:54:57;4.60;;;1.90;;
10365;SDS011;5229;41.820;23.490;2022-11-20T09:57:29;10.10;;;2.20;;
10365;SDS011;5229;41.820;23.490;2022-11-20T10:00:05;6.30;;;2.20;;
10365;SDS011;5229;41.820;23.490;2022-11-20T10:02:37;4.63;;;1.90;;
10365;SDS011;5229;41.820;23.490;2022-11-20T10:05:10;4.23;;;1.70;;
10365;SDS011;5229;41.820;23.490;2022-11-20T10:07:44;7.43;;;2.20;;
10365;SDS011;5229;41.820;23.490;2022-11-20T10:10:15;7.90;;;1.73;;
10365;SDS011;5229;41.820;23.490;2022-11-20T10:12:49;6.17;;;1.93;;
10365;SDS011;5229;41.820;23.490;2022-11-20T10:15:29;6.97;;;1.90;;
10365;SDS011;5229;41.820;23.490;2022-11-20T10:20:54;9.83;;;2.00;;
10365;SDS011;5229;41.820;23.490;2022-11-20T10:26:26;3.87;;;2.07;;
10365;SDS011;5229;41.820;23.490;2022-11-20T10:29:06;5.80;;;2.53;;
10365;SDS011;5229;41.820;23.490;2022-11-20T10:31:37;5.27;;;2.10;;
10365;SDS011;5229;41.820;23.490;2022-11-20T10:34:07;2.67;;;1.63;;
10365;SDS011;5229;41.820;23.490;2022-11-20T10:36:46;7.17;;;2.43;;
10365;SDS011;5229;41.820;23.490;2022-11-20T10:39:17;4.87;;;1.70;;
10365;SDS011;5229;41.820;23.490;2022-11-20T10:41:49;3.93;;;1.70;;
10365;SDS011;5229;41.820;23.490;2022-11-20T10:44:19;4.50;;;2.03;;
10365;SDS011;5229;41.820;23.490;2022-11-20T10:47:01;4.13;;;2.00;;
10365;SDS011;5229;41.820;23.490;2022-11-20T10:49:29;3.67;;;1.77;;
10365;SDS011;5229;41.820;23.490;2022-11-20T10:52:02;5.43;;;2.00;;
10365;SDS011;5229;41.820;23.490;2022-11-20T10:54:39;6.00;;;1.97;;
10365;SDS011;5229;41.820;23.490;2022-11-20T10:57:17;5.07;;;1.83;;
10365;SDS011;5229;41.820;23.490;2022-11-20T11:00:01;3.87;;;2.20;;
10365;SDS011;5229;41.820;23.490;2022-11-20T11:02:32;2.83;;;1.70;;
10365;SDS011;5229;41.820;23.490;2022-11-20T11:05:04;5.43;;;1.83;;
10365;SDS011;5229;41.820;23.490;2022-11-20T11:07:43;7.73;;;1.90;;
10365;SDS011;5229;41.820;23.490;2022-11-20T11:10:14;2.93;;;1.73;;
10365;SDS011;5229;41.820;23.490;2022-11-20T11:12:44;11.57;;;2.40;;
10365;SDS011;5229;41.820;23.490;2022-11-20T11:15:14;4.07;;;2.03;;
10365;SDS011;5229;41.820;23.490;2022-11-20T11:17:51;6.20;;;1.63;;
10365;SDS011;5229;41.820;23.490;2022-11-20T11:20:18;4.37;;;2.17;;
10365;SDS011;5229;41.820;23.490;2022-11-20T11:22:47;6.13;;;2.10;;
10365;SDS011;5229;41.820;23.490;2022-11-20T11:28:03;5.00;;;2.03;;
10365;SDS011;5229;41.820;23.490;2022-11-20T11:30:40;3.47;;;1.60;;
10365;SDS011;5229;41.820;23.490;2022-11-20T11:33:09;4.43;;;1.70;;
10365;SDS011;5229;41.820;23.490;2022-11-20T11:35:39;7.73;;;2.03;;
10365;SDS011;5229;41.820;23.490;2022-11-20T11:38:14;2.77;;;1.60;;
10365;SDS011;5229;41.820;23.490;2022-11-20T11:40:43;4.93;;;2.00;;
10365;SDS011;5229;41.820;23.490;2022-11-20T11:43:16;4.77;;;1.70;;
10365;SDS011;5229;41.820;23.490;2022-11-20T11:45:59;5.00;;;1.80;;
10365;SDS011;5229;41.820;23.490;2022-11-20T11:48:26;5.27;;;1.70;;
10365;SDS011;5229;41.820;23.490;2022-11-20T11:50:53;4.23;;;2.00;;
10365;SDS011;5229;41.820;23.490;2022-11-20T11:53:21;3.33;;;1.60;;
10365;SDS011;5229;41.820;23.490;2022-11-20T11:55:54;4.77;;;1.93;;
10365;SDS011;5229;41.820;23.490;2022-11-20T11:58:31;1.90;;;1.60;;
10365;SDS011;5229;41.820;23.490;2022-11-20T12:01:07;3.50;;;1.73;;
10365;SDS011;5229;41.820;23.490;2022-11-20T12:04:00;3.10;;;2.00;;
10365;SDS011;5229;41.820;23.490;2022-11-20T12:06:31;6.50;;;2.10;;
10365;SDS011;5229;41.820;23.490;2022-11-20T12:09:03;4.77;;;2.40;;
10365;SDS011;5229;41.820;23.490;2022-11-20T12:11:32;4.20;;;2.00;;
10365;SDS011;5229;41.820;23.490;2022-11-20T12:14:07;7.90;;;2.30;;
10365;SDS011;5229;41.820;23.490;2022-11-20T12:16:40;5.63;;;1.90;;
10365;SDS011;5229;41.820;23.490;2022-11-20T12:19:08;4.53;;;2.60;;
10365;SDS011;5229;41.820;23.490;2022-11-20T12:21:40;3.97;;;2.90;;
10365;SDS011;5229;41.820;23.490;2022-11-20T12:27:14;8.07;;;2.53;;
10365;SDS011;5229;41.820;23.490;2022-11-20T12:30:00;5.47;;;2.90;;
10365;SDS011;5229;41.820;23.490;2022-11-20T12:32:39;4.73;;;2.40;;
10365;SDS011;5229;41.820;23.490;2022-11-20T12:35:37;6.40;;;2.40;;
10365;SDS011;5229;41.820;23.490;2022-11-20T12:41:15;7.17;;;2.30;;
10365;SDS011;5229;41.820;23.490;2022-11-20T12:44:07;4.73;;;1.90;;
10365;SDS011;5229;41.820;23.490;2022-11-20T12:47:02;5.13;;;2.20;;
10365;SDS011;5229;41.820;23.490;2022-11-20T12:49:42;6.67;;;2.27;;
10365;SDS011;5229;41.820;23.490;2022-11-20T12:52:24;3.20;;;2.00;;
10365;SDS011;5229;41.820;23.490;2022-11-20T12:55:12;4.33;;;1.93;;
10365;SDS011;5229;41.820;23.490;2022-11-20T12:57:46;4.03;;;2.03;;
10365;SDS011;5229;41.820;23.490;2022-11-20T13:00:19;4.87;;;2.47;;
10365;SDS011;5229;41.820;23.490;2022-11-20T13:06:00;5.20;;;2.00;;
10365;SDS011;5229;41.820;23.490;2022-11-20T13:08:36;2.67;;;1.93;;
10365;SDS011;5229;41.820;23.490;2022-11-20T13:11:08;4.10;;;1.67;;
10365;SDS011;5229;41.820;23.490;2022-11-20T13:13:45;2.90;;;1.30;;
10365;SDS011;5229;41.820;23.490;2022-11-20T13:16:36;4.47;;;2.60;;
10365;SDS011;5229;41.820;23.490;2022-11-20T13:19:09;4.60;;;2.83;;
10365;SDS011;5229;41.820;23.490;2022-11-20T13:21:39;6.27;;;2.10;;
10365;SDS011;5229;41.820;23.490;2022-11-20T13:24:20;5.07;;;2.20;;
10365;SDS011;5229;41.820;23.490;2022-11-20T13:26:59;4.77;;;3.20;;
10365;SDS011;5229;41.820;23.490;2022-11-20T13:29:29;3.00;;;2.00;;
10365;SDS011;5229;41.820;23.490;2022-11-20T13:32:03;6.07;;;2.17;;
10365;SDS011;5229;41.820;23.490;2022-11-20T13:34:32;5.07;;;1.80;;
10365;SDS011;5229;41.820;23.490;2022-11-20T13:37:00;6.07;;;4.10;;
10365;SDS011;5229;41.820;23.490;2022-11-20T13:39:29;4.10;;;1.60;;
10365;SDS011;5229;41.820;23.490;2022-11-20T13:41:58;7.73;;;1.57;;
10365;SDS011;5229;41.820;23.490;2022-11-20T13:44:29;3.80;;;1.50;;
10365;SDS011;5229;41.820;23.490;2022-11-20T13:47:00;2.10;;;0.90;;
10365;SDS011;5229;41.820;23.490;2022-11-20T13:49:29;1.93;;;1.13;;
10365;SDS011;5229;41.820;23.490;2022-11-20T13:52:02;2.47;;;1.10;;
10365;SDS011;5229;41.820;23.490;2022-11-20T13:54:55;1.13;;;0.87;;
10365;SDS011;5229;41.820;23.490;2022-11-20T13:57:37;1.17;;;0.70;;
10365;SDS011;5229;41.820;23.490;2022-11-20T14:00:21;0.90;;;0.80;;
10365;SDS011;5229;41.820;23.490;2022-11-20T14:02:52;2.50;;;0.77;;
10365;SDS011;5229;41.820;23.490;2022-11-20T14:05:27;0.60;;;0.60;;
10365;SDS011;5229;41.820;23.490;2022-11-20T14:07:57;1.50;;;0.90;;
10365;SDS011;5229;41.820;23.490;2022-11-20T14:10:25;1.30;;;0.90;;
10365;SDS011;5229;41.820;23.490;2022-11-20T14:12:53;1.13;;;0.60;;
10365;SDS011;5229;41.820;23.490;2022-11-20T14:15:26;1.17;;;0.90;;
10365;SDS011;5229;41.820;23.490;2022-11-20T14:17:54;1.37;;;0.83;;
10365;SDS011;5229;41.820;23.490;2022-11-20T14:20:23;1.90;;;0.70;;
10365;SDS011;5229;41.820;23.490;2022-11-20T14:22:53;0.90;;;0.77;;
10365;SDS011;5229;41.820;23.490;2022-11-20T14:25:20;1.80;;;0.90;;
10365;SDS011;5229;41.820;23.490;2022-11-20T14:27:52;1.70;;;0.80;;
10365;SDS011;5229;41.820;23.490;2022-11-20T14:30:21;3.57;;;1.13;;
10365;SDS011;5229;41.820;23.490;2022-11-20T14:32:50;2.70;;;0.90;;
10365;SDS011;5229;41.820;23.490;2022-11-20T14:35:20;5.17;;;1.10;;
10365;SDS011;5229;41.820;23.490;2022-11-20T14:37:50;3.47;;;1.00;;
10365;SDS011;5229;41.820;23.490;2022-11-20T14:40:22;3.80;;;1.00;;
10365;SDS011;5229;41.820;23.490;2022-11-20T14:42:57;5.37;;;1.33;;
10365;SDS011;5229;41.820;23.490;2022-11-20T14:45:25;2.63;;;1.30;;
10365;SDS011;5229;41.820;23.490;2022-11-20T14:47:55;4.73;;;2.50;;
10365;SDS011;5229;41.820;23.490;2022-11-20T14:50:25;3.93;;;3.33;;
10365;SDS011;5229;41.820;23.490;2022-11-20T14:52:53;4.23;;;2.10;;
10365;SDS011;5229;41.820;23.490;2022-11-20T14:55:25;4.03;;;2.90;;
10365;SDS011;5229;41.820;23.490;2022-11-20T14:57:54;5.23;;;2.60;;
10365;SDS011;5229;41.820;23.490;2022-11-20T15:00:23;6.33;;;3.27;;
10365;SDS011;5229;41.820;23.490;2022-11-20T15:02:51;3.87;;;2.50;;
10365;SDS011;5229;41.820;23.490;2022-11-20T15:05:20;2.97;;;1.70;;
10365;SDS011;5229;41.820;23.490;2022-11-20T15:07:49;3.53;;;1.70;;
10365;SDS011;5229;41.820;23.490;2022-11-20T15:10:21;1.97;;;1.60;;
10365;SDS011;5229;41.820;23.490;2022-11-20T15:12:50;5.60;;;1.80;;
10365;SDS011;5229;41.820;23.490;2022-11-20T15:15:19;5.43;;;1.77;;
10365;SDS011;5229;41.820;23.490;2022-11-20T15:17:49;3.50;;;1.60;;
10365;SDS011;5229;41.820;23.490;2022-11-20T15:20:16;3.37;;;1.47;;
10365;SDS011;5229;41.820;23.490;2022-11-20T15:22:45;1.53;;;1.10;;